Time;durP1;ratioP1;P1;durP2;ratioP2;P2;SDS_P1;SDS_P2;PMS_P1;PMS_P2;Temp;Humidity;BMP_temperature;BMP_pressure;BME280_temperature;BME280_humidity;BME280_pressure;Samples;Min_cycle;Max_cycle;Signal;HPM_P1;HPM_P2
2021/12/13 00:01:23;;;;;;;19.70;9.27;;;;;;;;;;5100203;28;20051;-59
2021/12/13 00:03:58;;;;;;;20.00;7.90;;;;;;;;;;5086262;28;20105;-59
2021/12/13 00:06:27;;;;;;;20.15;8.10;;;;;;;;;;5073512;28;20385;-59
2021/12/13 00:08:53;;;;;;;;;;;;;;;;;;5088525;28;20040;-59
2021/12/13 00:11:21;;;;;;;18.80;7.15;;;;;;;;;;5092562;28;19931;-59
2021/12/13 00:13:51;;;;;;;18.67;7.85;;;;;;;;;;5074577;28;20199;-59
2021/12/13 00:16:23;;;;;;;16.70;6.95;;;;;;;;;;5091317;28;20060;-59
2021/12/13 00:18:54;;;;;;;17.15;6.63;;;;;;;;;;5080279;28;20148;-59
2021/12/13 00:21:28;;;;;;;16.60;7.75;;;;;;;;;;5082467;28;20048;-59
2021/12/13 00:23:57;;;;;;;13.23;6.93;;;;;;;;;;5078716;28;20060;-59
2021/12/13 00:26:23;;;;;;;;;;;;;;;;;;5085949;28;20044;-59
2021/12/13 00:28:49;;;;;;;16.98;6.90;;;;;;;;;;5072785;28;19924;-59
2021/12/13 00:31:23;;;;;;;22.05;7.95;;;;;;;;;;5069942;28;20133;-59
2021/12/13 00:33:58;;;;;;;20.20;7.78;;;;;;;;;;5095405;28;20055;-59
2021/12/13 00:36:32;;;;;;;15.23;6.95;;;;;;;;;;5070239;28;20152;-58
2021/12/13 00:39:00;;;;;;;15.68;7.13;;;;;;;;;;5082315;28;20052;-58
2021/12/13 00:41:29;;;;;;;15.02;7.25;;;;;;;;;;5085629;28;20115;-59
2021/12/13 00:44:02;;;;;;;18.00;7.00;;;;;;;;;;5089545;28;20517;-58
2021/12/13 00:46:29;;;;;;;15.05;6.78;;;;;;;;;;5091862;28;20052;-57
2021/12/13 00:48:56;;;;;;;15.73;7.22;;;;;;;;;;5082167;28;20112;-58
2021/12/13 00:51:25;;;;;;;13.48;6.53;;;;;;;;;;5085146;28;20060;-58
2021/12/13 00:54:04;;;;;;;18.10;7.75;;;;;;;;;;5080974;28;20144;-58
2021/12/13 00:56:46;;;;;;;13.90;7.07;;;;;;;;;;5086901;28;20453;-61
2021/12/13 00:59:14;;;;;;;19.30;6.90;;;;;;;;;;5079387;28;20132;-59
2021/12/13 01:01:41;;;;;;;19.98;6.95;;;;;;;;;;5080987;28;20147;-58
2021/12/13 01:04:10;;;;;;;17.50;7.18;;;;;;;;;;5093880;28;20052;-58
2021/12/13 01:06:58;;;;;;;18.35;7.30;;;;;;;;;;5083474;28;20052;-58
2021/12/13 01:09:54;;;;;;;11.95;6.10;;;;;;;;;;5049578;28;20139;-59
2021/12/13 01:12:24;;;;;;;12.85;6.38;;;;;;;;;;5066810;28;20139;-59
2021/12/13 01:14:58;;;;;;;16.48;6.38;;;;;;;;;;5079236;28;20143;-59
2021/12/13 01:17:37;;;;;;;15.48;6.55;;;;;;;;;;5083862;28;20067;-59
2021/12/13 01:20:08;;;;;;;15.30;6.57;;;;;;;;;;5049402;28;20060;-59
2021/12/13 01:22:45;;;;;;;12.60;6.70;;;;;;;;;;5057476;28;20108;-59
2021/12/13 01:25:21;;;;;;;16.30;6.97;;;;;;;;;;5061465;28;20048;-59
2021/12/13 01:27:53;;;;;;;18.65;6.93;;;;;;;;;;5066967;28;20052;-59
2021/12/13 01:30:22;;;;;;;13.60;6.50;;;;;;;;;;5061602;28;20067;-59
2021/12/13 01:32:50;;;;;;;19.73;8.10;;;;;;;;;;5066560;28;20048;-59
2021/12/13 01:35:19;;;;;;;17.20;6.70;;;;;;;;;;5058472;28;20484;-58
2021/12/13 01:37:51;;;;;;;15.25;7.00;;;;;;;;;;5059075;28;20109;-59
2021/12/13 01:40:19;;;;;;;19.17;7.05;;;;;;;;;;5073278;28;20076;-59
2021/12/13 01:42:45;;;;;;;16.85;7.18;;;;;;;;;;5061226;28;20164;-59
2021/12/13 01:45:16;;;;;;;18.55;7.05;;;;;;;;;;5073458;28;20080;-59
2021/12/13 01:47:44;;;;;;;16.80;7.18;;;;;;;;;;5076605;28;20155;-59
2021/12/13 01:50:13;;;;;;;15.45;6.75;;;;;;;;;;5060429;28;20049;-58
2021/12/13 01:52:40;;;;;;;20.30;7.07;;;;;;;;;;5059478;28;20041;-58
2021/12/13 01:55:14;;;;;;;20.33;8.27;;;;;;;;;;5072801;28;20048;-58
2021/12/13 01:57:47;;;;;;;16.77;7.07;;;;;;;;;;5066373;28;20139;-59
2021/12/13 02:00:18;;;;;;;14.73;6.95;;;;;;;;;;5055905;28;20516;-59
2021/12/13 02:02:46;;;;;;;17.05;7.38;;;;;;;;;;5065418;28;20089;-59
2021/12/13 02:05:16;;;;;;;14.65;7.43;;;;;;;;;;5074835;28;20109;-59
2021/12/13 02:07:45;;;;;;;19.52;7.40;;;;;;;;;;5082336;28;20059;-59
2021/12/13 02:10:14;;;;;;;13.38;6.30;;;;;;;;;;5062731;28;20099;-59
2021/12/13 02:12:43;;;;;;;18.60;8.07;;;;;;;;;;5064719;28;20057;-59
2021/12/13 02:17:57;;;;;;;16.80;7.13;;;;;;;;;;5065352;28;20425;-59
2021/12/13 02:20:26;;;;;;;18.15;9.02;;;;;;;;;;5076038;28;20152;-59
2021/12/13 02:22:56;;;;;;;21.33;10.68;;;;;;;;;;5076116;28;20050;-59
2021/12/13 02:25:28;;;;;;;24.08;10.55;;;;;;;;;;5083722;28;20144;-59
2021/12/13 02:27:58;;;;;;;25.23;11.15;;;;;;;;;;5097097;28;20068;-59
2021/12/13 02:30:27;;;;;;;24.25;11.38;;;;;;;;;;5097565;28;20515;-59
2021/12/13 02:32:54;;;;;;;15.73;8.68;;;;;;;;;;5075101;28;20052;-58
2021/12/13 02:35:23;;;;;;;17.60;8.85;;;;;;;;;;5078308;28;20140;-59
2021/12/13 02:37:49;;;;;;;;;;;;;;;;;;5072188;28;20048;-58
2021/12/13 02:40:19;;;;;;;23.77;10.90;;;;;;;;;;5077331;28;19920;-59
2021/12/13 02:42:46;;;;;;;27.00;12.55;;;;;;;;;;5077818;28;20053;-59
2021/12/13 02:45:17;;;;;;;24.05;11.63;;;;;;;;;;5082545;28;20075;-59
2021/12/13 02:47:50;;;;;;;22.98;12.57;;;;;;;;;;5073023;28;20052;-59
2021/12/13 02:50:19;;;;;;;29.52;12.55;;;;;;;;;;5082812;28;20055;-59
2021/12/13 02:52:45;;;;;;;24.60;12.05;;;;;;;;;;5076269;28;20051;-59
2021/12/13 02:55:17;;;;;;;23.13;10.27;;;;;;;;;;5082244;28;20119;-58
2021/12/13 02:57:47;;;;;;;29.23;11.93;;;;;;;;;;5093070;28;20051;-59
2021/12/13 03:00:15;;;;;;;21.77;9.38;;;;;;;;;;5066280;28;20060;-59
2021/12/13 03:02:43;;;;;;;21.42;10.18;;;;;;;;;;5072769;28;20048;-60
2021/12/13 03:05:14;;;;;;;21.30;11.07;;;;;;;;;;5063924;28;20501;-59
2021/12/13 03:07:42;;;;;;;19.42;9.40;;;;;;;;;;5066358;28;20597;-59
2021/12/13 03:10:10;;;;;;;;;;;;;;;;;;5086411;28;20435;-59
2021/12/13 03:12:36;;;;;;;17.38;8.85;;;;;;;;;;5075916;28;19928;-59
2021/12/13 03:15:07;;;;;;;25.88;11.27;;;;;;;;;;5066134;28;20045;-59
2021/12/13 03:17:35;;;;;;;22.65;11.07;;;;;;;;;;5063588;28;20130;-59
2021/12/13 03:20:11;;;;;;;23.73;11.25;;;;;;;;;;5066270;28;20076;-59
2021/12/13 03:22:44;;;;;;;21.73;9.98;;;;;;;;;;5064358;28;20060;-59
2021/12/13 03:25:13;;;;;;;16.00;9.23;;;;;;;;;;5045873;28;20060;-59
2021/12/13 03:27:58;;;;;;;21.92;9.85;;;;;;;;;;5048408;28;20049;-59
2021/12/13 03:30:27;;;;;;;22.20;9.70;;;;;;;;;;5057362;28;20058;-58
2021/12/13 03:32:56;;;;;;;20.45;9.63;;;;;;;;;;5085912;28;20105;-59
2021/12/13 03:35:25;;;;;;;20.35;9.68;;;;;;;;;;5063001;28;20059;-58
2021/12/13 03:37:55;;;;;;;20.05;9.20;;;;;;;;;;5066356;28;20151;-59
2021/12/13 03:40:22;;;;;;;19.15;9.68;;;;;;;;;;5080119;28;20158;-59
2021/12/13 03:42:50;;;;;;;16.55;8.07;;;;;;;;;;5079272;28;20055;-56
2021/12/13 03:45:19;;;;;;;16.53;8.30;;;;;;;;;;5081967;28;20075;-58
2021/12/13 03:47:50;;;;;;;18.27;8.07;;;;;;;;;;5088179;28;20393;-59
2021/12/13 03:50:21;;;;;;;18.20;8.40;;;;;;;;;;5070817;28;20045;-58
2021/12/13 03:52:48;;;;;;;14.48;7.45;;;;;;;;;;5066633;28;20160;-58
2021/12/13 03:55:17;;;;;;;20.15;7.85;;;;;;;;;;5050652;28;20095;-59
2021/12/13 03:57:43;;;;;;;;;;;;;;;;;;5046022;28;20064;-58
2021/12/13 04:00:11;;;;;;;15.95;7.32;;;;;;;;;;5050856;28;19924;-58
2021/12/13 04:02:39;;;;;;;16.23;7.70;;;;;;;;;;5064992;28;20114;-59
2021/12/13 04:05:10;;;;;;;15.65;7.15;;;;;;;;;;5061436;28;20044;-58
2021/12/13 04:07:38;;;;;;;13.77;7.05;;;;;;;;;;5065518;28;20053;-59
2021/12/13 04:10:07;;;;;;;16.67;7.65;;;;;;;;;;5057226;28;20049;-59
2021/12/13 04:12:40;;;;;;;15.07;7.93;;;;;;;;;;5052040;28;20139;-58
2021/12/13 04:15:19;;;;;;;15.82;7.03;;;;;;;;;;5070683;28;20040;-58
2021/12/13 04:17:46;;;;;;;;;;;;;;;;;;5088090;28;20070;-59
2021/12/13 04:20:16;;;;;;;12.40;6.43;;;;;;;;;;5082179;28;20039;-58
2021/12/13 04:22:47;;;;;;;16.25;8.45;;;;;;;;;;5048751;28;20067;-58
2021/12/13 04:25:16;;;;;;;16.70;7.40;;;;;;;;;;5060739;28;20059;-58
2021/12/13 04:27:46;;;;;;;17.60;7.95;;;;;;;;;;5065659;28;20065;-59
2021/12/13 04:30:16;;;;;;;15.95;7.78;;;;;;;;;;5068585;28;20086;-58
2021/12/13 04:32:44;;;;;;;16.05;8.25;;;;;;;;;;5066707;28;20059;-58
2021/12/13 04:35:15;;;;;;;17.45;8.02;;;;;;;;;;5065530;28;20052;-58
2021/12/13 04:37:43;;;;;;;22.25;8.50;;;;;;;;;;5063988;28;20457;-60
2021/12/13 04:40:12;;;;;;;17.17;7.95;;;;;;;;;;5068076;28;20092;-59
2021/12/13 04:42:39;;;;;;;16.65;7.82;;;;;;;;;;5064584;28;20063;-58
2021/12/13 04:45:08;;;;;;;21.13;7.88;;;;;;;;;;5069505;28;20060;-58
2021/12/13 04:47:36;;;;;;;20.25;8.57;;;;;;;;;;5065826;28;20048;-58
2021/12/13 04:50:10;;;;;;;20.08;7.65;;;;;;;;;;5068589;28;20060;-58
2021/12/13 04:52:39;;;;;;;17.38;7.78;;;;;;;;;;5064376;28;20080;-59
2021/12/13 04:55:07;;;;;;;21.48;8.32;;;;;;;;;;5059457;28;20139;-59
2021/12/13 04:57:34;;;;;;;20.48;8.55;;;;;;;;;;5065117;28;20080;-58
2021/12/13 05:00:03;;;;;;;17.73;8.30;;;;;;;;;;5068522;28;20052;-58
2021/12/13 05:02:29;;;;;;;;;;;;;;;;;;5061914;28;20091;-58
2021/12/13 05:04:56;;;;;;;17.05;7.60;;;;;;;;;;5065046;28;19960;-58
2021/12/13 05:07:24;;;;;;;19.95;9.07;;;;;;;;;;5050983;28;20154;-58
2021/12/13 05:09:53;;;;;;;20.90;7.95;;;;;;;;;;5068942;28;20052;-58
2021/12/13 05:12:22;;;;;;;19.45;8.30;;;;;;;;;;5065631;28;20059;-59
2021/12/13 05:14:50;;;;;;;;;;;;;;;;;;5070871;28;20114;-58
2021/12/13 05:17:18;;;;;;;17.67;7.25;;;;;;;;;;5068477;28;19970;-59
2021/12/13 05:19:46;;;;;;;18.97;8.17;;;;;;;;;;5071203;28;20084;-58
2021/12/13 05:22:14;;;;;;;20.67;8.98;;;;;;;;;;5068384;28;20291;-58
2021/12/13 05:24:46;;;;;;;23.95;9.57;;;;;;;;;;5064242;28;20122;-59
2021/12/13 05:27:16;;;;;;;21.90;9.70;;;;;;;;;;5068023;28;20050;-59
2021/12/13 05:29:44;;;;;;;23.40;9.55;;;;;;;;;;5063972;28;20052;-59
2021/12/13 05:32:12;;;;;;;19.43;8.90;;;;;;;;;;5067313;28;20060;-59
2021/12/13 05:34:40;;;;;;;18.63;7.50;;;;;;;;;;5064512;28;20393;-59
2021/12/13 05:37:08;;;;;;;23.45;9.43;;;;;;;;;;5067783;28;20071;-59
2021/12/13 05:39:35;;;;;;;21.83;9.32;;;;;;;;;;5063755;28;20135;-58
2021/12/13 05:42:04;;;;;;;16.08;7.07;;;;;;;;;;5067548;28;20155;-58
2021/12/13 05:44:33;;;;;;;27.38;8.88;;;;;;;;;;5063922;28;20148;-59
2021/12/13 05:47:01;;;;;;;25.77;9.57;;;;;;;;;;5067506;28;20109;-58
2021/12/13 05:49:28;;;;;;;18.73;8.05;;;;;;;;;;5061854;28;20068;-58
2021/12/13 05:51:57;;;;;;;27.98;10.57;;;;;;;;;;5057862;28;20080;-58
2021/12/13 05:54:26;;;;;;;25.75;10.90;;;;;;;;;;5072780;28;20305;-58
2021/12/13 05:56:54;;;;;;;27.42;11.55;;;;;;;;;;5094610;28;20048;-59
2021/12/13 05:59:22;;;;;;;19.30;9.02;;;;;;;;;;5085063;28;20044;-59
2021/12/13 06:01:59;;;;;;;23.87;8.77;;;;;;;;;;5074413;28;20084;-58
2021/12/13 06:04:32;;;;;;;21.05;9.15;;;;;;;;;;5054526;28;20057;-57
2021/12/13 06:06:59;;;;;;;22.38;9.40;;;;;;;;;;5062456;28;20067;-59
2021/12/13 06:09:43;;;;;;;18.25;8.30;;;;;;;;;;5060157;28;20060;-57
2021/12/13 06:12:12;;;;;;;25.30;9.13;;;;;;;;;;5083759;28;20136;-58
2021/12/13 06:14:40;;;;;;;24.25;8.88;;;;;;;;;;5061911;28;20408;-59
2021/12/13 06:17:11;;;;;;;21.15;8.98;;;;;;;;;;5073861;28;20094;-58
2021/12/13 06:19:40;;;;;;;18.00;8.60;;;;;;;;;;5070689;28;20075;-58
2021/12/13 06:22:12;;;;;;;18.58;8.25;;;;;;;;;;5083947;28;20133;-58
2021/12/13 06:24:40;;;;;;;21.45;9.13;;;;;;;;;;5064110;28;20072;-59
2021/12/13 06:27:12;;;;;;;22.17;9.87;;;;;;;;;;5056312;28;20138;-58
2021/12/13 06:29:48;;;;;;;25.42;10.77;;;;;;;;;;5071148;28;20900;-58
2021/12/13 06:32:24;;;;;;;18.25;8.52;;;;;;;;;;5079412;28;20056;-58
2021/12/13 06:34:51;;;;;;;18.98;8.82;;;;;;;;;;5079759;28;20048;-58
2021/12/13 06:37:22;;;;;;;26.55;10.02;;;;;;;;;;5074647;28;20052;-58
2021/12/13 06:39:49;;;;;;;18.95;8.10;;;;;;;;;;5079447;28;20052;-58
2021/12/13 06:42:15;;;;;;;21.63;9.52;;;;;;;;;;5077715;28;20135;-58
2021/12/13 06:44:46;;;;;;;19.45;7.68;;;;;;;;;;5082447;28;20110;-58
2021/12/13 06:47:14;;;;;;;26.30;10.05;;;;;;;;;;5079257;28;20048;-59
2021/12/13 06:49:43;;;;;;;28.95;11.10;;;;;;;;;;5078378;28;20596;-58
2021/12/13 06:52:19;;;;;;;26.48;9.95;;;;;;;;;;5093509;28;20075;-58
2021/12/13 06:54:47;;;;;;;19.50;9.07;;;;;;;;;;5084907;28;20079;-58
2021/12/13 06:57:15;;;;;;;22.10;9.63;;;;;;;;;;5071922;28;20052;-58
2021/12/13 06:59:48;;;;;;;19.60;8.53;;;;;;;;;;5066001;28;20045;-58
2021/12/13 07:02:17;;;;;;;23.10;9.07;;;;;;;;;;5071704;28;20080;-59
2021/12/13 07:04:55;;;;;;;20.50;8.43;;;;;;;;;;5087519;28;20147;-58
2021/12/13 07:07:24;;;;;;;22.20;8.13;;;;;;;;;;5075059;28;20132;-58
2021/12/13 07:09:53;;;;;;;22.40;8.45;;;;;;;;;;5082580;28;20147;-58
2021/12/13 07:12:21;;;;;;;22.58;8.50;;;;;;;;;;5065890;28;20048;-59
2021/12/13 07:14:48;;;;;;;;;;;;;;;;;;5086230;28;20059;-59
2021/12/13 07:17:16;;;;;;;23.75;7.60;;;;;;;;;;5078519;28;19947;-58
2021/12/13 07:19:44;;;;;;;19.85;8.10;;;;;;;;;;5065550;28;20135;-58
2021/12/13 07:22:16;;;;;;;20.15;8.30;;;;;;;;;;5063821;28;20114;-58
2021/12/13 07:24:45;;;;;;;19.38;8.23;;;;;;;;;;5085533;28;20076;-59
2021/12/13 07:27:13;;;;;;;22.10;8.13;;;;;;;;;;5082545;28;20067;-58
2021/12/13 07:29:42;;;;;;;28.63;8.93;;;;;;;;;;5065391;28;20060;-59
2021/12/13 07:32:11;;;;;;;17.15;8.02;;;;;;;;;;5065406;28;20120;-58
2021/12/13 07:34:48;;;;;;;16.23;7.30;;;;;;;;;;5079715;28;20105;-59
2021/12/13 07:37:17;;;;;;;17.13;7.32;;;;;;;;;;5085908;28;20109;-59
2021/12/13 07:39:43;;;;;;;26.48;8.45;;;;;;;;;;5065186;28;20091;-58
2021/12/13 07:42:11;;;;;;;19.95;8.35;;;;;;;;;;5083156;28;20056;-58
2021/12/13 07:44:41;;;;;;;19.17;7.73;;;;;;;;;;5076811;28;20047;-58
2021/12/13 07:47:13;;;;;;;26.48;8.95;;;;;;;;;;5085695;28;20060;-58
2021/12/13 07:49:43;;;;;;;21.08;8.40;;;;;;;;;;5098721;28;20117;-59
2021/12/13 07:52:10;;;;;;;18.27;8.43;;;;;;;;;;5088393;28;20060;-58
2021/12/13 07:54:40;;;;;;;16.70;7.60;;;;;;;;;;5086011;28;20138;-58
2021/12/13 07:57:15;;;;;;;17.63;7.45;;;;;;;;;;5089942;28;20151;-58
2021/12/13 07:59:42;;;;;;;17.35;8.20;;;;;;;;;;5075538;28;20048;-57
2021/12/13 08:02:10;;;;;;;17.85;7.78;;;;;;;;;;5062565;28;20079;-58
2021/12/13 08:04:44;;;;;;;17.70;7.90;;;;;;;;;;5074997;28;20079;-58
2021/12/13 08:07:12;;;;;;;22.90;8.20;;;;;;;;;;5086684;28;20044;-58
2021/12/13 08:09:43;;;;;;;20.63;7.63;;;;;;;;;;5076968;28;20048;-58
2021/12/13 08:12:14;;;;;;;18.73;7.97;;;;;;;;;;5069964;28;20076;-58
2021/12/13 08:14:42;;;;;;;19.70;7.82;;;;;;;;;;5048719;28;20183;-58
2021/12/13 08:17:10;;;;;;;14.83;6.53;;;;;;;;;;5049222;28;20122;-58
2021/12/13 08:19:36;;;;;;;18.98;8.32;;;;;;;;;;5045509;28;20045;-58
2021/12/13 08:22:04;;;;;;;17.98;7.82;;;;;;;;;;5049032;28;20048;-58
2021/12/13 08:24:32;;;;;;;16.70;7.37;;;;;;;;;;5045756;28;20087;-59
2021/12/13 08:27:03;;;;;;;19.13;7.22;;;;;;;;;;5065975;28;20064;-58
2021/12/13 08:29:32;;;;;;;17.98;6.80;;;;;;;;;;5065090;28;20063;-59
2021/12/13 08:32:01;;;;;;;19.55;7.32;;;;;;;;;;5064816;28;20146;-58
2021/12/13 08:34:29;;;;;;;16.40;7.32;;;;;;;;;;5056201;28;20060;-58
2021/12/13 08:36:56;;;;;;;14.75;6.32;;;;;;;;;;5061797;28;20102;-58
2021/12/13 08:39:25;;;;;;;19.00;7.15;;;;;;;;;;5067820;28;20052;-58
2021/12/13 08:41:53;;;;;;;16.50;7.43;;;;;;;;;;5063858;28;20060;-58
2021/12/13 08:44:27;;;;;;;21.13;7.88;;;;;;;;;;5084848;28;20068;-58
2021/12/13 08:46:55;;;;;;;20.35;7.00;;;;;;;;;;5050129;28;20118;-58
2021/12/13 08:49:25;;;;;;;17.83;6.68;;;;;;;;;;5048252;28;20059;-58
2021/12/13 08:51:53;;;;;;;16.55;7.45;;;;;;;;;;5045503;28;20076;-59
2021/12/13 08:54:21;;;;;;;;;;;;;;;;;;5083821;28;20062;-59
2021/12/13 08:56:49;;;;;;;14.80;6.05;;;;;;;;;;5055646;28;19932;-59
2021/12/13 08:59:20;;;;;;;16.10;6.80;;;;;;;;;;5048803;28;20045;-59
2021/12/13 09:01:52;;;;;;;13.80;6.65;;;;;;;;;;5044772;28;20122;-59
2021/12/13 09:04:24;;;;;;;19.25;6.65;;;;;;;;;;5048527;28;20055;-58
2021/12/13 09:06:54;;;;;;;15.45;6.45;;;;;;;;;;5045369;28;20091;-57
2021/12/13 09:09:21;;;;;;;20.88;7.13;;;;;;;;;;5066194;28;20088;-57
2021/12/13 09:11:51;;;;;;;14.38;6.40;;;;;;;;;;5053901;28;20049;-57
2021/12/13 09:14:20;;;;;;;23.20;7.30;;;;;;;;;;5068128;28;20057;-57
2021/12/13 09:16:46;;;;;;;;;;;;;;;;;;5062414;28;20105;-57
2021/12/13 09:19:17;;;;;;;20.75;6.32;;;;;;;;;;5048228;28;19947;-57
2021/12/13 09:21:49;;;;;;;15.20;6.35;;;;;;;;;;5044879;28;20212;-57
2021/12/13 09:24:23;;;;;;;18.63;6.45;;;;;;;;;;5066751;28;20044;-57
2021/12/13 09:26:49;;;;;;;20.48;6.72;;;;;;;;;;5065638;28;20070;-57
2021/12/13 09:29:18;;;;;;;21.33;7.65;;;;;;;;;;5083564;28;20330;-56
2021/12/13 09:31:44;;;;;;;12.88;6.30;;;;;;;;;;5084776;28;20060;-57
2021/12/13 09:34:13;;;;;;;21.10;6.85;;;;;;;;;;5056468;28;20156;-57
2021/12/13 09:36:44;;;;;;;13.10;6.10;;;;;;;;;;5067250;28;20058;-57
2021/12/13 09:39:16;;;;;;;15.63;6.25;;;;;;;;;;5066027;28;20052;-57
2021/12/13 09:41:45;;;;;;;15.15;6.05;;;;;;;;;;5070834;28;20056;-57
2021/12/13 09:44:29;;;;;;;13.70;6.07;;;;;;;;;;5049288;28;20056;-57
2021/12/13 09:46:59;;;;;;;14.55;5.80;;;;;;;;;;5064102;28;20139;-57
2021/12/13 09:49:27;;;;;;;15.75;5.88;;;;;;;;;;5058079;28;20074;-57
2021/12/13 09:51:57;;;;;;;17.75;6.50;;;;;;;;;;5067227;28;20059;-57
2021/12/13 09:54:25;;;;;;;14.13;5.80;;;;;;;;;;5050012;28;20068;-57
2021/12/13 09:56:55;;;;;;;12.77;5.30;;;;;;;;;;5047389;28;20126;-57
2021/12/13 09:59:25;;;;;;;15.23;5.90;;;;;;;;;;5053917;28;20052;-57
2021/12/13 10:01:52;;;;;;;15.30;6.90;;;;;;;;;;5083560;28;20055;-57
2021/12/13 10:04:25;;;;;;;13.52;5.30;;;;;;;;;;5063032;28;20062;-56
2021/12/13 10:06:54;;;;;;;13.68;6.00;;;;;;;;;;5066744;28;20561;-57
2021/12/13 10:09:27;;;;;;;14.80;5.90;;;;;;;;;;5055142;28;20045;-57
2021/12/13 10:11:56;;;;;;;12.10;5.22;;;;;;;;;;5064271;28;20056;-57
2021/12/13 10:14:22;;;;;;;;;;;;;;;;;;5055814;28;20049;-57
2021/12/13 10:16:50;;;;;;;12.10;5.18;;;;;;;;;;5046628;28;19924;-57
2021/12/13 10:19:19;;;;;;;12.07;4.75;;;;;;;;;;5043288;28;20049;-57
2021/12/13 10:21:46;;;;;;;15.25;4.95;;;;;;;;;;5046397;28;20102;-57
2021/12/13 10:24:16;;;;;;;15.00;5.68;;;;;;;;;;5043674;28;20057;-57
2021/12/13 10:26:45;;;;;;;14.25;5.05;;;;;;;;;;5046330;28;20102;-57
2021/12/13 10:29:11;;;;;;;;;;;;;;;;;;5046758;28;20063;-58
2021/12/13 10:31:39;;;;;;;12.40;4.90;;;;;;;;;;5044800;28;19946;-57
2021/12/13 10:34:07;;;;;;;14.30;4.80;;;;;;;;;;5055863;28;20048;-57
2021/12/13 10:36:35;;;;;;;11.18;4.82;;;;;;;;;;5047126;28;20114;-57
2021/12/13 10:39:08;;;;;;;12.00;5.20;;;;;;;;;;5055375;28;20057;-56
2021/12/13 10:41:37;;;;;;;12.77;4.78;;;;;;;;;;5062246;28;20138;-57
2021/12/13 10:44:08;;;;;;;12.30;5.63;;;;;;;;;;5064278;28;20061;-57
2021/12/13 10:46:36;;;;;;;12.18;5.25;;;;;;;;;;5058848;28;20075;-57
2021/12/13 10:49:04;;;;;;;11.32;5.45;;;;;;;;;;5067136;28;20076;-56
2021/12/13 10:51:32;;;;;;;13.80;5.50;;;;;;;;;;5063623;28;20052;-57
2021/12/13 10:54:09;;;;;;;14.77;4.90;;;;;;;;;;5056541;28;20049;-55
2021/12/13 10:56:39;;;;;;;15.73;4.60;;;;;;;;;;5045505;28;20056;-57
2021/12/13 10:59:08;;;;;;;14.55;5.03;;;;;;;;;;5046411;28;20081;-57
2021/12/13 11:01:38;;;;;;;18.25;5.60;;;;;;;;;;5052135;28;20067;-56
2021/12/13 11:04:07;;;;;;;15.60;5.35;;;;;;;;;;5061349;28;20068;-57
2021/12/13 11:06:35;;;;;;;;;;;;;;;;;;5048781;28;20065;-57
2021/12/13 11:09:02;;;;;;;10.38;4.22;;;;;;;;;;5048157;28;19929;-56
2021/12/13 11:11:29;;;;;;;14.13;5.00;;;;;;;;;;5047933;28;20053;-57
2021/12/13 11:13:58;;;;;;;10.75;4.82;;;;;;;;;;5065651;28;20048;-57
2021/12/13 11:16:29;;;;;;;9.82;4.50;;;;;;;;;;5061479;28;20079;-57
2021/12/13 11:18:56;;;;;;;11.32;4.25;;;;;;;;;;5065637;28;20052;-55
2021/12/13 11:21:24;;;;;;;13.13;5.05;;;;;;;;;;5061765;28;20117;-57
2021/12/13 11:23:52;;;;;;;10.27;4.35;;;;;;;;;;5065623;28;20139;-57
2021/12/13 11:26:20;;;;;;;13.03;5.00;;;;;;;;;;5065336;28;20060;-57
2021/12/13 11:28:47;;;;;;;11.63;4.80;;;;;;;;;;5061530;28;20310;-57
2021/12/13 11:31:15;;;;;;;12.45;4.80;;;;;;;;;;5064668;28;20381;-57
2021/12/13 11:33:59;;;;;;;12.45;4.93;;;;;;;;;;5061322;28;20048;-57
2021/12/13 11:36:37;;;;;;;10.18;4.13;;;;;;;;;;5064982;28;20059;-57
2021/12/13 11:39:09;;;;;;;10.33;4.23;;;;;;;;;;5044230;28;20099;-57
2021/12/13 11:41:59;;;;;;;14.95;4.30;;;;;;;;;;5045678;28;20057;-57
2021/12/13 11:44:39;;;;;;;10.63;4.43;;;;;;;;;;5016865;28;20132;-57
2021/12/13 11:47:35;;;;;;;10.15;3.58;;;;;;;;;;5045115;28;20060;-57
2021/12/13 11:50:27;;;;;;;11.18;3.97;;;;;;;;;;5044632;28;20077;-57
2021/12/13 11:53:15;;;;;;;9.43;4.20;;;;;;;;;;5044326;28;20057;-57
2021/12/13 11:55:42;;;;;;;;;;;;;;;;;;5065766;28;20060;-58
2021/12/13 11:58:20;;;;;;;8.40;3.42;;;;;;;;;;5061197;28;19931;-57
2021/12/13 12:01:01;;;;;;;11.43;4.03;;;;;;;;;;5065009;28;20070;-56
2021/12/13 12:04:03;;;;;;;11.85;4.07;;;;;;;;;;5058280;28;20053;-57
2021/12/13 12:06:54;;;;;;;9.75;4.22;;;;;;;;;;4968434;28;20054;-57
2021/12/13 12:09:39;;;;;;;11.55;4.13;;;;;;;;;;4969239;28;20141;-57
2021/12/13 12:12:21;;;;;;;8.60;4.05;;;;;;;;;;5061296;28;20144;-57
2021/12/13 12:14:49;;;;;;;16.67;4.93;;;;;;;;;;5052632;28;20052;-57
2021/12/13 12:17:17;;;;;;;13.73;5.28;;;;;;;;;;5045157;28;20045;-57
2021/12/13 12:19:44;;;;;;;11.63;5.00;;;;;;;;;;5042659;28;20130;-57
2021/12/13 12:22:13;;;;;;;9.37;4.50;;;;;;;;;;5045393;28;20057;-57
2021/12/13 12:24:41;;;;;;;;;;;;;;;;;;5050021;28;20056;-57
2021/12/13 12:27:09;;;;;;;13.35;4.03;;;;;;;;;;5065417;28;19966;-57
2021/12/13 12:29:40;;;;;;;11.57;4.57;;;;;;;;;;5060951;28;20072;-56
2021/12/13 12:32:08;;;;;;;10.70;4.55;;;;;;;;;;5066108;28;20048;-57
2021/12/13 12:34:47;;;;;;;9.70;4.38;;;;;;;;;;5060225;28;20052;-57
2021/12/13 12:37:41;;;;;;;9.77;4.10;;;;;;;;;;5047999;28;20144;-57
2021/12/13 12:40:23;;;;;;;8.60;4.18;;;;;;;;;;5064821;28;20587;-56
2021/12/13 12:42:50;;;;;;;13.48;4.93;;;;;;;;;;5080071;28;20059;-57
2021/12/13 12:45:21;;;;;;;10.65;4.47;;;;;;;;;;5070873;28;20052;-57
2021/12/13 12:48:17;;;;;;;9.98;4.97;;;;;;;;;;5088364;28;20072;-57
2021/12/13 12:50:49;;;;;;;13.57;5.03;;;;;;;;;;5077201;28;20137;-57
2021/12/13 12:53:17;;;;;;;10.35;4.93;;;;;;;;;;5067938;28;20159;-57
2021/12/13 12:55:45;;;;;;;12.20;4.85;;;;;;;;;;5067712;28;20059;-57
2021/12/13 12:58:13;;;;;;;14.55;5.00;;;;;;;;;;5067817;28;20143;-57
2021/12/13 13:00:41;;;;;;;11.80;4.38;;;;;;;;;;5068397;28;20143;-57
2021/12/13 13:03:08;;;;;;;13.38;4.72;;;;;;;;;;5087808;28;20051;-57
2021/12/13 13:05:35;;;;;;;13.88;4.43;;;;;;;;;;5081864;28;20083;-57
2021/12/13 13:08:01;;;;;;;17.27;5.00;;;;;;;;;;5067721;28;20106;-58
2021/12/13 13:10:35;;;;;;;9.30;4.05;;;;;;;;;;5067271;28;20052;-57
2021/12/13 13:13:05;;;;;;;8.63;4.22;;;;;;;;;;5076883;28;20056;-57
2021/12/13 13:15:35;;;;;;;8.70;4.22;;;;;;;;;;5067533;28;20126;-57
2021/12/13 13:18:04;;;;;;;15.55;5.10;;;;;;;;;;5083491;28;20067;-58
2021/12/13 13:20:33;;;;;;;10.43;4.40;;;;;;;;;;5087871;28;20075;-58
2021/12/13 13:23:00;;;;;;;10.15;4.75;;;;;;;;;;5083721;28;20527;-57
2021/12/13 13:25:29;;;;;;;10.15;4.55;;;;;;;;;;5087864;28;20125;-57
2021/12/13 13:27:57;;;;;;;15.68;5.13;;;;;;;;;;5068902;28;20106;-56
2021/12/13 13:30:29;;;;;;;8.57;4.28;;;;;;;;;;5067958;28;20056;-58
2021/12/13 13:32:56;;;;;;;7.88;3.63;;;;;;;;;;5073801;28;20170;-57
2021/12/13 13:35:24;;;;;;;13.95;5.25;;;;;;;;;;5086957;28;20135;-57
2021/12/13 13:37:51;;;;;;;11.15;4.90;;;;;;;;;;5072575;28;20137;-56
2021/12/13 13:40:19;;;;;;;10.25;4.75;;;;;;;;;;5067447;28;20052;-57
2021/12/13 13:42:48;;;;;;;9.60;4.57;;;;;;;;;;5063609;28;20052;-57
2021/12/13 13:45:18;;;;;;;13.10;5.55;;;;;;;;;;5067769;28;20060;-57
2021/12/13 13:47:46;;;;;;;11.27;4.35;;;;;;;;;;5064668;28;20120;-57
2021/12/13 13:50:17;;;;;;;10.57;4.88;;;;;;;;;;5067464;28;20102;-57
2021/12/13 13:52:46;;;;;;;11.15;4.60;;;;;;;;;;5068273;28;20075;-57
2021/12/13 13:55:12;;;;;;;;;;;;;;;;;;5087550;28;20090;-57
2021/12/13 13:57:39;;;;;;;11.65;4.20;;;;;;;;;;5067247;28;20377;-58
2021/12/13 14:00:07;;;;;;;13.55;4.20;;;;;;;;;;5086595;28;20094;-57
2021/12/13 14:02:36;;;;;;;10.60;5.05;;;;;;;;;;5085922;28;20130;-57
2021/12/13 14:05:05;;;;;;;8.45;3.97;;;;;;;;;;5083614;28;20071;-57
2021/12/13 14:07:33;;;;;;;11.23;4.32;;;;;;;;;;5067940;28;20044;-57
2021/12/13 14:10:06;;;;;;;10.77;4.03;;;;;;;;;;5080416;28;20139;-57
2021/12/13 14:12:34;;;;;;;13.90;4.63;;;;;;;;;;5066613;28;20056;-57
2021/12/13 14:15:05;;;;;;;9.73;4.37;;;;;;;;;;5063328;28;20056;-57
2021/12/13 14:17:37;;;;;;;8.35;3.90;;;;;;;;;;5066675;28;20106;-57
2021/12/13 14:20:07;;;;;;;11.13;4.07;;;;;;;;;;5076084;28;20098;-57
2021/12/13 14:22:37;;;;;;;10.50;4.70;;;;;;;;;;5069160;28;20049;-57
2021/12/13 14:25:08;;;;;;;10.10;4.40;;;;;;;;;;5071601;28;20106;-57
2021/12/13 14:27:34;;;;;;;12.43;5.18;;;;;;;;;;5066441;28;20060;-57
2021/12/13 14:30:09;;;;;;;10.80;4.15;;;;;;;;;;5061152;28;20055;-57
2021/12/13 14:32:35;;;;;;;9.18;3.45;;;;;;;;;;5066421;28;20121;-57
2021/12/13 14:35:11;;;;;;;13.85;4.72;;;;;;;;;;5055337;28;20164;-58
2021/12/13 14:37:38;;;;;;;8.93;4.35;;;;;;;;;;5066347;28;20110;-57
2021/12/13 14:40:05;;;;;;;9.23;4.10;;;;;;;;;;5058730;28;20087;-58
2021/12/13 14:42:33;;;;;;;14.52;4.15;;;;;;;;;;5062580;28;20049;-57
2021/12/13 14:45:02;;;;;;;9.20;3.90;;;;;;;;;;5058825;28;20053;-58
2021/12/13 14:47:28;;;;;;;;;;;;;;;;;;5063021;28;20326;-58
2021/12/13 14:49:57;;;;;;;8.57;3.47;;;;;;;;;;5047106;28;19946;-57
2021/12/13 14:52:23;;;;;;;;;;;;;;;;;;5079325;28;20171;-57
2021/12/13 14:54:52;;;;;;;10.20;5.35;;;;;;;;;;5070648;28;19924;-57
2021/12/13 14:57:19;;;;;;;8.82;4.95;;;;;;;;;;5073527;28;20048;-57